Terminal Aerodrome Forecast
Issued by NWS

Home | Current Version | Previous Version | Text Only | Print | Product List | Glossary On
Versions: 1 2 3 4 5 6 7 8 9 10 11 12 13 14 15 16 17
000
FTUS41 KCAR 291730
TAFFVE
TAF
KFVE 291730Z 2918/3018 18005KT P6SM SCT200
     FM300400 14007KT P6SM SCT009
     FM300800 14006KT 3SM -SN SCT010 BKN015 OVC070
     FM301300 14006KT 1SM -SN OVC010=

USA.gov is the U.S. government's official web portal to all federal, state and local government web resources and services.